Time;durP1;ratioP1;P1;durP2;ratioP2;P2;SDS_P1;SDS_P2;PMS_P1;PMS_P2;Temp;Humidity;BMP_temperature;BMP_pressure;BME280_temperature;BME280_humidity;BME280_pressure;Samples;Min_cycle;Max_cycle;Signal;HPM_P1;HPM_P2
2022/11/28 00:00:40;;;;;;;9.10;6.80;;;6.50;99.90;;;;;;5035733;28;20713;-82
2022/11/28 00:03:06;;;;;;;6.97;5.80;;;6.50;99.90;;;;;;5031957;28;20190;-80
2022/11/28 00:05:34;;;;;;;7.93;5.37;;;6.50;99.90;;;;;;5031414;28;20413;-80
2022/11/28 00:08:00;;;;;;;7.32;6.07;;;6.50;99.90;;;;;;5033884;28;20276;-80
2022/11/28 00:10:26;;;;;;;8.70;6.00;;;6.50;99.90;;;;;;5016202;28;20201;-79
2022/11/28 00:12:51;;;;;;;7.83;5.57;;;6.40;99.90;;;;;;5033405;28;20206;-79
2022/11/28 00:15:17;;;;;;;7.53;5.77;;;6.50;99.90;;;;;;5002639;28;20279;-80
2022/11/28 00:17:43;;;;;;;7.67;5.90;;;6.40;99.90;;;;;;5003679;28;20266;-78
2022/11/28 00:20:08;;;;;;;8.27;6.50;;;6.40;99.90;;;;;;5038157;28;20224;-79
2022/11/28 00:22:34;;;;;;;9.90;6.80;;;6.40;99.90;;;;;;5019239;28;20190;-78
2022/11/28 00:24:59;;;;;;;7.87;5.90;;;6.40;99.90;;;;;;5037727;28;20177;-79
2022/11/28 00:27:25;;;;;;;7.70;5.80;;;6.40;99.90;;;;;;5037309;28;20646;-79
2022/11/28 00:29:50;;;;;;;8.60;5.83;;;6.40;99.90;;;;;;5019868;28;20566;-79
2022/11/28 00:32:16;;;;;;;8.50;6.70;;;6.40;99.90;;;;;;5004011;28;20191;-79
2022/11/28 00:34:42;;;;;;;8.23;6.03;;;6.40;99.90;;;;;;5019691;28;20185;-79
2022/11/28 00:37:07;;;;;;;9.73;6.30;;;6.40;99.90;;;;;;5019939;28;20232;-79
2022/11/28 00:39:33;;;;;;;6.50;5.70;;;6.40;99.90;;;;;;5037486;28;20181;-78
2022/11/28 00:41:58;;;;;;;9.97;6.00;;;6.40;99.90;;;;;;5019610;28;20178;-79
2022/11/28 00:44:24;;;;;;;7.80;6.17;;;6.40;99.90;;;;;;5036768;28;20622;-81
2022/11/28 00:46:49;;;;;;;8.27;6.43;;;6.40;99.90;;;;;;5019529;28;20171;-79
2022/11/28 00:49:15;;;;;;;5.50;4.93;;;6.40;99.90;;;;;;5003201;28;20182;-79
2022/11/28 00:51:41;;;;;;;7.83;6.67;;;6.40;99.90;;;;;;5019222;28;20671;-80
2022/11/28 00:54:06;;;;;;;9.10;6.17;;;6.40;99.90;;;;;;5037384;28;20214;-79
2022/11/28 00:56:35;;;;;;;8.03;6.10;;;6.40;99.90;;;;;;5037086;28;20188;-79
2022/11/28 00:59:02;;;;;;;5.30;4.78;;;6.50;99.90;;;;;;5036696;28;20423;-80
2022/11/28 01:01:29;;;;;;;8.90;5.95;;;6.50;99.90;;;;;;5036634;28;20200;-80
2022/11/28 01:03:56;;;;;;;8.00;5.40;;;6.50;99.90;;;;;;5036480;28;20174;-80
2022/11/28 01:06:30;;;;;;;10.88;6.13;;;6.50;99.90;;;;;;5019389;28;20194;-80
2022/11/28 01:09:06;;;;;;;9.88;6.07;;;6.50;99.90;;;;;;5018817;28;20222;-80
2022/11/28 01:11:32;;;;;;;8.13;6.20;;;6.50;99.90;;;;;;5036189;28;20191;-80
2022/11/28 01:14:00;;;;;;;8.32;6.50;;;6.50;99.90;;;;;;5036657;28;20545;-79
2022/11/28 01:16:26;;;;;;;7.22;6.40;;;6.50;99.90;;;;;;5036298;28;20273;-83
2022/11/28 01:18:52;;;;;;;7.57;5.85;;;6.50;99.90;;;;;;5036548;28;20601;-79
2022/11/28 01:21:18;;;;;;;6.10;5.43;;;6.50;99.90;;;;;;5018728;28;20284;-80
2022/11/28 01:23:43;;;;;;;6.30;5.50;;;6.50;99.90;;;;;;5001548;28;20341;-80
2022/11/28 01:26:13;;;;;;;8.73;5.77;;;6.50;99.90;;;;;;5018308;28;20520;-80
2022/11/28 01:28:39;;;;;;;8.55;5.97;;;6.40;99.90;;;;;;5017888;28;20173;-80
2022/11/28 01:31:10;;;;;;;6.73;5.90;;;6.50;99.90;;;;;;5017933;28;20197;-80
2022/11/28 01:33:36;;;;;;;9.05;5.85;;;6.50;99.90;;;;;;5018709;28;20223;-80
2022/11/28 01:36:02;;;;;;;6.88;5.78;;;6.50;99.90;;;;;;5036168;28;20227;-80
2022/11/28 01:38:28;;;;;;;6.30;5.30;;;6.50;99.90;;;;;;5018383;28;20536;-80
2022/11/28 01:40:55;;;;;;;11.60;6.20;;;6.50;99.90;;;;;;5017925;28;20292;-81
2022/11/28 01:43:21;;;;;;;9.40;6.47;;;6.50;99.90;;;;;;5035869;28;20185;-79
2022/11/28 01:45:47;;;;;;;7.55;5.88;;;6.50;99.90;;;;;;5035651;28;20184;-80
2022/11/28 01:48:16;;;;;;;12.37;5.97;;;6.50;99.90;;;;;;5036072;28;20638;-79
2022/11/28 01:50:46;;;;;;;7.50;5.72;;;6.50;99.90;;;;;;5035354;28;20200;-80
2022/11/28 01:53:12;;;;;;;6.88;5.15;;;6.50;99.90;;;;;;5017930;28;20625;-80
2022/11/28 01:55:50;;;;;;;6.78;6.10;;;6.50;99.90;;;;;;5017787;28;20217;-80
2022/11/28 01:58:16;;;;;;;8.93;6.65;;;6.50;99.90;;;;;;5018359;28;20186;-80
2022/11/28 02:00:41;;;;;;;7.80;5.97;;;6.50;99.90;;;;;;5034884;28;20576;-80
2022/11/28 02:03:19;;;;;;;7.50;6.10;;;6.50;99.90;;;;;;5018198;28;20223;-80
2022/11/28 02:05:47;;;;;;;8.15;5.88;;;6.50;99.90;;;;;;5034822;28;20219;-80
2022/11/28 02:08:13;;;;;;;7.53;5.70;;;6.50;99.90;;;;;;5035203;28;20240;-80
2022/11/28 02:11:13;;;;;;;7.57;6.37;;;6.50;99.90;;;;;;5017965;28;20180;-81
2022/11/28 02:14:11;;;;;;;7.72;6.00;;;6.50;99.90;;;;;;5030918;28;20193;-81
2022/11/28 02:17:23;;;;;;;9.35;6.60;;;6.50;99.90;;;;;;5034418;28;20216;-81
2022/11/28 02:20:10;;;;;;;10.73;5.75;;;6.50;99.90;;;;;;4993903;28;20221;-80
2022/11/28 02:23:03;;;;;;;8.57;5.40;;;6.60;99.90;;;;;;5017476;28;20182;-79
2022/11/28 02:25:46;;;;;;;9.20;5.38;;;6.60;99.90;;;;;;5035605;28;20174;-83
2022/11/28 02:28:33;;;;;;;7.75;5.75;;;6.50;99.90;;;;;;5035807;28;20155;-79
2022/11/28 02:31:05;;;;;;;8.32;5.57;;;6.50;99.90;;;;;;5018052;28;20227;-79
2022/11/28 02:33:38;;;;;;;6.40;4.93;;;6.50;99.90;;;;;;5017413;28;20176;-80
2022/11/28 02:36:18;;;;;;;11.82;5.50;;;6.50;99.90;;;;;;5035540;28;20266;-79
2022/11/28 02:39:12;;;;;;;9.15;6.03;;;6.60;99.90;;;;;;5035630;28;20174;-79
2022/11/28 02:41:53;;;;;;;8.23;6.43;;;6.60;99.90;;;;;;5035435;28;20185;-80
2022/11/28 02:44:24;;;;;;;6.97;5.50;;;6.60;99.90;;;;;;5035773;28;20193;-79
2022/11/28 02:47:11;;;;;;;9.85;6.72;;;6.60;99.90;;;;;;5018242;28;20185;-79
2022/11/28 02:50:04;;;;;;;7.43;6.38;;;6.50;99.90;;;;;;5035741;28;20181;-79
2022/11/28 02:52:38;;;;;;;8.90;5.00;;;6.50;99.90;;;;;;5017989;28;20188;-79
2022/11/28 02:55:05;;;;;;;7.63;5.20;;;6.50;99.90;;;;;;5018564;28;20172;-79
2022/11/28 02:57:36;;;;;;;7.53;5.38;;;6.50;99.90;;;;;;5017530;28;20627;-85
2022/11/28 03:00:29;;;;;;;9.20;5.50;;;6.50;99.90;;;;;;5017923;28;20209;-79
2022/11/28 03:03:15;;;;;;;7.93;5.32;;;6.50;99.90;;;;;;5017703;28;20208;-80
2022/11/28 03:05:43;;;;;;;6.50;5.53;;;6.50;99.90;;;;;;5017823;28;20220;-80
2022/11/28 03:08:40;;;;;;;8.50;5.60;;;6.60;99.90;;;;;;5017401;28;20707;-80
2022/11/28 03:11:13;;;;;;;6.07;5.00;;;6.60;99.90;;;;;;5035793;28;20171;-80
2022/11/28 03:14:00;;;;;;;9.00;5.63;;;6.60;99.90;;;;;;5035567;28;20174;-80
2022/11/28 03:16:29;;;;;;;7.43;5.75;;;6.60;99.90;;;;;;5035125;28;20240;-81
2022/11/28 03:19:20;;;;;;;10.95;5.95;;;6.60;99.90;;;;;;5034847;28;20629;-81
2022/11/28 03:21:54;;;;;;;7.20;5.32;;;6.60;99.90;;;;;;5034848;28;20609;-81
2022/11/28 03:24:32;;;;;;;6.20;5.10;;;6.60;99.90;;;;;;5035027;28;20186;-81
2022/11/28 03:27:19;;;;;;;7.30;5.35;;;6.50;99.90;;;;;;5018810;28;20181;-81
2022/11/28 03:29:54;;;;;;;11.32;6.00;;;6.50;99.90;;;;;;5038128;28;20181;-81
2022/11/28 03:32:32;;;;;;;7.65;4.80;;;6.50;99.90;;;;;;5020712;28;20531;-81
2022/11/28 03:35:10;;;;;;;9.95;5.55;;;6.50;99.90;;;;;;5020315;28;20188;-81
2022/11/28 03:37:42;;;;;;;8.18;5.72;;;6.50;99.90;;;;;;5020493;28;20228;-82
2022/11/28 03:40:13;;;;;;;9.30;6.82;;;6.50;99.90;;;;;;5038084;28;20249;-81
2022/11/28 03:42:44;;;;;;;8.70;5.85;;;6.50;99.90;;;;;;5038190;28;20178;-81
2022/11/28 03:45:19;;;;;;;7.57;6.10;;;6.50;99.90;;;;;;5020590;28;20185;-81
2022/11/28 03:47:51;;;;;;;11.82;5.70;;;6.50;99.90;;;;;;5037937;28;20170;-81
2022/11/28 03:50:28;;;;;;;7.05;5.30;;;6.50;99.90;;;;;;5020133;28;20181;-82
2022/11/28 03:53:01;;;;;;;5.00;4.40;;;6.50;99.90;;;;;;5037727;28;20169;-81
2022/11/28 03:55:40;;;;;;;6.20;4.90;;;6.50;99.90;;;;;;5037640;28;20625;-81
2022/11/28 03:58:06;;;;;;;6.95;6.07;;;6.50;99.90;;;;;;5037923;28;20253;-83
2022/11/28 04:00:37;;;;;;;8.30;4.90;;;6.50;99.90;;;;;;5038278;28;20284;-81
2022/11/28 04:03:26;;;;;;;8.65;6.03;;;6.50;99.90;;;;;;5037464;28;20173;-81
2022/11/28 04:06:17;;;;;;;9.60;6.25;;;6.50;99.90;;;;;;5037542;28;20256;-82
2022/11/28 04:08:48;;;;;;;6.10;5.50;;;6.50;99.90;;;;;;5026388;28;20234;-81
2022/11/28 04:11:21;;;;;;;9.35;6.70;;;6.50;99.90;;;;;;5037743;28;20235;-81
2022/11/28 04:13:53;;;;;;;9.15;6.30;;;6.50;99.90;;;;;;5019953;28;20192;-81
2022/11/28 04:16:30;;;;;;;10.20;6.72;;;6.40;99.90;;;;;;5037247;28;20176;-81
2022/11/28 04:19:14;;;;;;;7.32;5.82;;;6.50;99.90;;;;;;5037317;28;20173;-81
2022/11/28 04:21:46;;;;;;;8.80;6.43;;;6.40;99.90;;;;;;5019854;28;20209;-81
2022/11/28 04:24:17;;;;;;;6.55;5.68;;;6.40;99.90;;;;;;5037741;28;20177;-81
2022/11/28 04:27:06;;;;;;;10.85;6.20;;;6.50;99.90;;;;;;5019719;28;20178;-81
2022/11/28 04:29:37;;;;;;;9.50;6.55;;;6.40;99.90;;;;;;5037359;28;20205;-81
2022/11/28 04:32:04;;;;;;;8.27;6.68;;;6.50;99.90;;;;;;5037449;28;20181;-80
2022/11/28 04:34:33;;;;;;;8.65;5.40;;;6.50;99.90;;;;;;5020693;28;20522;-80
2022/11/28 04:37:00;;;;;;;8.45;6.30;;;6.50;99.90;;;;;;5037426;28;20229;-80
2022/11/28 04:39:28;;;;;;;8.90;6.43;;;6.50;99.90;;;;;;5037038;28;20217;-80
2022/11/28 04:41:59;;;;;;;10.63;6.18;;;6.50;99.90;;;;;;5019827;28;20198;-81
2022/11/28 04:44:35;;;;;;;7.07;5.25;;;6.40;99.90;;;;;;5037610;28;20182;-81
2022/11/28 04:47:01;;;;;;;8.32;5.88;;;6.40;99.90;;;;;;5037585;28;20524;-81
2022/11/28 04:49:28;;;;;;;9.48;6.32;;;6.40;99.90;;;;;;5019703;28;20193;-82
2022/11/28 04:52:08;;;;;;;6.15;5.40;;;6.40;99.90;;;;;;5037329;28;20178;-81
2022/11/28 04:54:49;;;;;;;7.68;5.22;;;6.40;99.90;;;;;;5037428;28;20177;-81
2022/11/28 04:57:27;;;;;;;9.60;6.40;;;6.40;99.90;;;;;;5036913;28;20251;-81
2022/11/28 04:59:53;;;;;;;6.03;5.13;;;6.40;99.90;;;;;;5018986;28;20189;-82
2022/11/28 05:02:20;;;;;;;6.30;4.60;;;6.40;99.90;;;;;;5036884;28;20194;-79
2022/11/28 05:04:46;;;;;;;6.68;5.13;;;6.40;99.90;;;;;;5018664;28;20189;-82
2022/11/28 05:07:12;;;;;;;6.03;5.40;;;6.40;99.90;;;;;;5002510;28;20312;-82
2022/11/28 05:09:37;;;;;;;7.23;5.67;;;6.40;99.90;;;;;;5018805;28;20593;-84
2022/11/28 05:12:03;;;;;;;8.63;5.47;;;6.40;99.90;;;;;;5018980;28;20653;-81
2022/11/28 05:14:29;;;;;;;9.20;5.60;;;6.30;99.90;;;;;;5018847;28;20511;-81
2022/11/28 05:16:55;;;;;;;7.00;6.10;;;6.40;99.90;;;;;;5036978;28;20581;-81
2022/11/28 05:19:20;;;;;;;6.97;6.07;;;6.40;99.90;;;;;;5036621;28;20235;-81
2022/11/28 05:21:46;;;;;;;8.40;6.20;;;6.40;99.90;;;;;;5036052;28;20209;-81
2022/11/28 05:24:11;;;;;;;6.30;5.30;;;6.40;99.90;;;;;;5019063;28;20185;-81
2022/11/28 05:26:37;;;;;;;11.27;7.20;;;6.30;99.90;;;;;;5002432;28;20506;-81
2022/11/28 05:29:04;;;;;;;7.03;6.13;;;6.30;99.90;;;;;;5036054;28;20195;-80
2022/11/28 05:31:30;;;;;;;8.82;6.47;;;6.30;99.90;;;;;;5002084;28;20438;-80
2022/11/28 05:33:55;;;;;;;8.90;6.57;;;6.30;99.90;;;;;;5001982;28;20182;-80
2022/11/28 05:36:22;;;;;;;9.73;7.40;;;6.30;99.90;;;;;;5036367;28;20265;-80
2022/11/28 05:38:48;;;;;;;7.60;5.78;;;6.30;99.90;;;;;;5018545;28;20610;-80
2022/11/28 05:41:22;;;;;;;7.47;6.03;;;6.30;99.90;;;;;;5035882;28;20291;-79
2022/11/28 05:43:47;;;;;;;8.05;6.25;;;6.30;99.90;;;;;;5024578;28;20420;-79
2022/11/28 05:46:13;;;;;;;7.53;6.20;;;6.30;99.90;;;;;;5038546;28;20705;-78
2022/11/28 05:48:39;;;;;;;8.32;6.70;;;6.30;99.90;;;;;;5056108;28;20180;-79
2022/11/28 05:51:06;;;;;;;8.67;6.80;;;6.30;99.90;;;;;;5055207;28;20228;-79
2022/11/28 05:53:31;;;;;;;8.70;6.38;;;6.30;99.90;;;;;;5038230;28;20540;-79
2022/11/28 05:55:57;;;;;;;8.47;7.10;;;6.30;99.90;;;;;;5038606;28;20178;-79
2022/11/28 05:58:23;;;;;;;7.68;6.50;;;6.30;99.90;;;;;;5021908;28;20184;-79
2022/11/28 06:00:48;;;;;;;9.50;7.20;;;6.30;99.90;;;;;;5037516;28;20315;-79
2022/11/28 06:03:14;;;;;;;9.17;6.97;;;6.30;99.90;;;;;;5020798;28;20189;-80
2022/11/28 06:05:42;;;;;;;8.43;6.22;;;6.30;99.90;;;;;;5055233;28;20221;-79
2022/11/28 06:08:12;;;;;;;9.00;6.72;;;6.30;99.90;;;;;;5055011;28;20627;-80
2022/11/28 06:10:38;;;;;;;9.10;7.43;;;6.30;99.90;;;;;;5021300;28;20181;-80
2022/11/28 06:13:04;;;;;;;7.80;6.20;;;6.40;99.90;;;;;;5055875;28;20235;-80
2022/11/28 06:15:33;;;;;;;10.80;7.50;;;6.40;99.90;;;;;;5037988;28;20192;-80
2022/11/28 06:17:58;;;;;;;8.10;6.95;;;6.30;99.90;;;;;;5037315;28;20786;-79
2022/11/28 06:20:24;;;;;;;8.30;7.43;;;6.30;99.90;;;;;;5021144;28;20216;-79
2022/11/28 06:22:50;;;;;;;11.23;7.47;;;6.30;99.90;;;;;;5037397;28;20693;-79
2022/11/28 06:25:15;;;;;;;13.03;7.30;;;6.30;99.90;;;;;;5021379;28;20773;-79
2022/11/28 06:27:41;;;;;;;10.17;6.67;;;6.30;99.90;;;;;;5021219;28;20231;-79
2022/11/28 06:30:07;;;;;;;10.60;6.73;;;6.30;99.90;;;;;;5037415;28;20188;-80
2022/11/28 06:32:32;;;;;;;10.15;7.05;;;6.30;99.90;;;;;;5056015;28;20261;-79
2022/11/28 06:34:58;;;;;;;12.77;6.73;;;6.30;99.90;;;;;;5054882;28;20220;-79
2022/11/28 06:37:23;;;;;;;7.67;6.87;;;6.30;99.90;;;;;;5020689;28;20185;-80
2022/11/28 06:39:50;;;;;;;8.70;7.10;;;6.30;99.90;;;;;;5037407;28;20586;-79
2022/11/28 06:42:16;;;;;;;12.15;7.45;;;6.30;99.90;;;;;;5037819;28;20224;-79
2022/11/28 06:44:42;;;;;;;10.65;7.80;;;6.30;99.90;;;;;;5037758;28;20177;-80
2022/11/28 06:47:08;;;;;;;12.13;7.50;;;6.30;99.90;;;;;;5055042;28;20207;-80
2022/11/28 06:49:35;;;;;;;11.00;8.47;;;6.30;99.90;;;;;;5054737;28;20404;-79
2022/11/28 06:52:04;;;;;;;10.98;8.18;;;6.30;99.90;;;;;;5021130;28;20434;-82
2022/11/28 06:54:29;;;;;;;12.77;8.05;;;6.40;99.90;;;;;;5055278;28;20183;-81
2022/11/28 06:56:55;;;;;;;11.60;8.37;;;6.30;99.90;;;;;;5037269;28;20744;-81
2022/11/28 06:59:21;;;;;;;11.43;8.47;;;6.30;99.90;;;;;;5055081;28;20181;-81
2022/11/28 07:01:46;;;;;;;9.90;8.40;;;6.30;99.90;;;;;;5022017;28;20302;-82
2022/11/28 07:04:12;;;;;;;12.83;9.17;;;6.30;99.90;;;;;;5058654;28;20426;-81
2022/11/28 07:06:38;;;;;;;10.93;7.43;;;6.40;99.90;;;;;;5040491;28;20189;-81
2022/11/28 07:09:03;;;;;;;9.13;8.23;;;6.30;99.90;;;;;;5024436;28;20265;-80
2022/11/28 07:11:33;;;;;;;9.60;7.90;;;6.30;99.90;;;;;;5040915;28;20237;-81
2022/11/28 07:14:00;;;;;;;9.70;7.72;;;6.30;99.90;;;;;;5058377;28;20251;-82
2022/11/28 07:16:30;;;;;;;11.57;7.95;;;6.30;99.90;;;;;;5058657;28;20209;-81
2022/11/28 07:18:57;;;;;;;11.80;7.55;;;6.30;99.90;;;;;;5057891;28;20178;-81
2022/11/28 07:21:22;;;;;;;11.23;8.13;;;6.30;99.90;;;;;;5040544;28;20218;-81
2022/11/28 07:23:49;;;;;;;12.50;8.13;;;6.30;99.90;;;;;;5058267;28;20560;-82
2022/11/28 07:26:18;;;;;;;14.65;8.48;;;6.30;99.90;;;;;;5058405;28;20403;-81
2022/11/28 07:28:44;;;;;;;11.95;7.97;;;6.30;99.90;;;;;;5058555;28;20526;-82
2022/11/28 07:31:13;;;;;;;9.48;7.72;;;6.30;99.90;;;;;;5058311;28;20180;-81
2022/11/28 07:33:40;;;;;;;10.85;7.63;;;6.30;99.90;;;;;;5057804;28;20220;-81
2022/11/28 07:36:17;;;;;;;11.63;8.02;;;6.30;99.90;;;;;;5057948;28;20185;-81
2022/11/28 07:38:46;;;;;;;11.00;7.57;;;6.30;99.90;;;;;;5040501;28;20272;-81
2022/11/28 07:41:13;;;;;;;13.90;9.10;;;6.30;99.90;;;;;;5057516;28;20574;-82
2022/11/28 07:43:43;;;;;;;9.55;7.85;;;6.30;99.90;;;;;;5022918;28;20208;-81
2022/11/28 07:46:11;;;;;;;12.57;7.93;;;6.40;99.90;;;;;;5039734;28;20174;-82
2022/11/28 07:48:38;;;;;;;8.15;7.18;;;6.40;99.90;;;;;;5057686;28;20235;-82
2022/11/28 07:51:09;;;;;;;9.90;8.07;;;6.40;99.90;;;;;;5056794;28;20257;-82
2022/11/28 07:53:35;;;;;;;13.77;8.38;;;6.40;99.90;;;;;;5039712;28;20180;-83
2022/11/28 07:56:07;;;;;;;10.32;7.20;;;6.50;99.90;;;;;;5040390;28;20188;-83
2022/11/28 07:58:33;;;;;;;10.27;7.82;;;6.40;99.90;;;;;;5057920;28;20166;-83
2022/11/28 08:00:59;;;;;;;11.02;7.68;;;6.50;99.90;;;;;;5039546;28;20216;-83
2022/11/28 08:03:25;;;;;;;9.63;7.17;;;6.40;99.90;;;;;;5020085;28;20196;-84
2022/11/28 08:05:50;;;;;;;9.67;7.13;;;6.40;99.90;;;;;;5037616;28;20181;-84
2022/11/28 08:08:16;;;;;;;15.10;8.50;;;6.50;99.90;;;;;;5037286;28;20312;-83
2022/11/28 08:10:42;;;;;;;17.47;8.93;;;6.50;99.90;;;;;;5019754;28;20190;-83
2022/11/28 08:13:08;;;;;;;10.30;7.37;;;6.50;99.90;;;;;;5036216;28;20415;-83
2022/11/28 08:15:36;;;;;;;8.95;7.15;;;6.50;99.90;;;;;;5037440;28;20420;-83
2022/11/28 08:18:02;;;;;;;9.23;7.88;;;6.50;99.90;;;;;;5019532;28;20186;-83
2022/11/28 08:20:28;;;;;;;10.68;7.68;;;6.50;99.90;;;;;;5019166;28;20275;-85
2022/11/28 08:22:53;;;;;;;9.27;7.70;;;6.50;99.90;;;;;;5020249;28;20265;-83
2022/11/28 08:25:19;;;;;;;9.67;7.23;;;6.50;99.90;;;;;;5031268;28;20197;-83
2022/11/28 08:27:48;;;;;;;12.70;7.63;;;6.50;99.90;;;;;;5022778;28;20188;-83
2022/11/28 08:30:14;;;;;;;10.85;7.88;;;6.60;99.90;;;;;;5039102;28;20422;-83
2022/11/28 08:32:39;;;;;;;9.10;7.63;;;6.60;99.90;;;;;;5022679;28;20646;-82
2022/11/28 08:35:06;;;;;;;10.50;7.33;;;6.60;99.90;;;;;;5022513;28;20196;-82
2022/11/28 08:37:31;;;;;;;10.65;7.05;;;6.60;99.90;;;;;;5057464;28;20192;-82
2022/11/28 08:39:57;;;;;;;9.80;7.60;;;6.60;99.90;;;;;;5039476;28;20264;-82
2022/11/28 08:42:23;;;;;;;9.77;7.30;;;6.50;99.90;;;;;;5039243;28;20529;-82
2022/11/28 08:44:48;;;;;;;8.53;7.27;;;6.60;99.90;;;;;;5056641;28;20181;-82
2022/11/28 08:47:14;;;;;;;9.63;6.97;;;6.60;99.90;;;;;;5056493;28;20201;-82
2022/11/28 08:49:40;;;;;;;10.93;8.27;;;6.60;99.90;;;;;;5056581;28;20503;-82
2022/11/28 08:52:05;;;;;;;12.00;8.27;;;6.70;99.90;;;;;;5056085;28;20467;-82
2022/11/28 08:54:31;;;;;;;9.60;7.00;;;6.70;99.90;;;;;;5022266;28;20284;-81
2022/11/28 08:56:57;;;;;;;11.00;8.20;;;6.70;99.90;;;;;;5056439;28;20260;-82
2022/11/28 08:59:24;;;;;;;8.23;7.18;;;6.80;99.90;;;;;;5053010;28;20637;-82
2022/11/28 09:01:52;;;;;;;9.73;6.55;;;6.80;99.90;;;;;;5018304;28;20209;-85
2022/11/28 09:04:18;;;;;;;8.07;6.55;;;6.80;99.90;;;;;;5033814;28;20268;-86
2022/11/28 09:06:43;;;;;;;8.33;7.43;;;6.80;99.90;;;;;;5051807;28;20267;-82
2022/11/28 09:09:09;;;;;;;8.70;7.07;;;6.80;99.90;;;;;;5055774;28;20401;-82
2022/11/28 09:11:35;;;;;;;7.50;6.30;;;6.80;99.90;;;;;;5056237;28;20590;-81
2022/11/28 09:14:01;;;;;;;9.77;7.00;;;6.90;99.90;;;;;;5038142;28;20273;-82
2022/11/28 09:16:26;;;;;;;7.93;6.97;;;6.90;99.90;;;;;;5038213;28;20256;-82
2022/11/28 09:18:53;;;;;;;7.97;6.60;;;6.90;99.90;;;;;;5055536;28;20267;-83
2022/11/28 09:21:19;;;;;;;8.70;6.93;;;7.00;99.90;;;;;;5038271;28;20573;-82
2022/11/28 09:23:45;;;;;;;10.03;6.37;;;7.00;99.90;;;;;;5055999;28;20182;-82
2022/11/28 09:26:17;;;;;;;9.47;7.07;;;6.90;99.90;;;;;;5038259;28;20174;-82
2022/11/28 09:28:42;;;;;;;11.15;7.22;;;7.00;99.90;;;;;;5037965;28;20189;-82
2022/11/28 09:31:09;;;;;;;9.73;6.53;;;7.00;99.90;;;;;;5037791;28;20205;-82
2022/11/28 09:33:35;;;;;;;9.98;6.90;;;7.00;99.90;;;;;;5022160;28;20784;-82
2022/11/28 09:36:22;;;;;;;9.20;6.88;;;7.00;99.90;;;;;;5054842;28;20286;-82
2022/11/28 09:38:49;;;;;;;8.88;7.53;;;7.00;99.90;;;;;;5020347;28;20177;-85
2022/11/28 09:41:36;;;;;;;13.13;7.47;;;7.00;99.90;;;;;;5033980;28;20311;-85
2022/11/28 09:44:38;;;;;;;9.68;6.95;;;7.10;99.90;;;;;;5033884;28;20193;-83
2022/11/28 09:47:12;;;;;;;10.55;7.22;;;7.10;99.90;;;;;;5037691;28;20513;-82
2022/11/28 09:49:47;;;;;;;9.95;7.15;;;7.20;99.90;;;;;;5037832;28;20181;-82
2022/11/28 09:52:40;;;;;;;9.05;7.57;;;7.20;99.90;;;;;;5055474;28;20165;-82
2022/11/28 09:55:30;;;;;;;13.30;7.00;;;7.20;99.90;;;;;;5037325;28;20181;-82
2022/11/28 09:57:56;;;;;;;9.52;7.85;;;7.20;99.90;;;;;;5055732;28;20175;-84
2022/11/28 10:00:33;;;;;;;9.37;7.40;;;7.30;99.90;;;;;;5037444;28;20217;-82
2022/11/28 10:03:16;;;;;;;9.73;7.00;;;7.20;99.90;;;;;;5055690;28;20427;-82
2022/11/28 10:06:00;;;;;;;12.02;7.60;;;7.30;99.90;;;;;;5055137;28;20157;-82
2022/11/28 10:08:47;;;;;;;7.78;6.78;;;7.30;99.90;;;;;;5036787;28;20264;-82
2022/11/28 10:11:31;;;;;;;12.00;7.75;;;7.40;99.90;;;;;;5055068;28;20566;-82
2022/11/28 10:14:16;;;;;;;11.10;7.57;;;7.50;99.90;;;;;;5055385;28;20220;-81
2022/11/28 10:16:57;;;;;;;11.30;7.28;;;7.50;99.90;;;;;;5037154;28;20205;-82
2022/11/28 10:19:36;;;;;;;10.07;8.05;;;7.50;99.90;;;;;;5037523;28;20172;-82
2022/11/28 10:22:05;;;;;;;8.20;6.75;;;7.60;99.90;;;;;;5054693;28;20204;-82
2022/11/28 10:24:40;;;;;;;16.73;7.15;;;7.60;99.90;;;;;;5054953;28;20173;-82
2022/11/28 10:27:09;;;;;;;7.68;6.88;;;7.70;99.90;;;;;;5055336;28;20189;-82
2022/11/28 10:29:44;;;;;;;10.80;7.70;;;7.70;99.90;;;;;;5054994;28;20180;-82
2022/11/28 10:32:15;;;;;;;8.52;7.45;;;7.70;99.90;;;;;;5055120;28;20181;-81
2022/11/28 10:34:47;;;;;;;7.22;6.53;;;7.80;99.90;;;;;;5055160;28;20224;-81
2022/11/28 10:37:39;;;;;;;9.30;6.97;;;7.80;99.90;;;;;;5054856;28;20239;-82
2022/11/28 10:40:22;;;;;;;12.45;7.72;;;7.80;99.90;;;;;;5034256;28;20220;-82
2022/11/28 10:43:13;;;;;;;11.43;8.32;;;7.80;99.90;;;;;;5054944;28;20162;-82
2022/11/28 10:45:57;;;;;;;8.80;7.40;;;7.80;99.90;;;;;;5055053;28;20177;-82
2022/11/28 10:48:32;;;;;;;10.95;8.68;;;7.80;99.90;;;;;;5036816;28;20191;-82
2022/11/28 10:51:05;;;;;;;8.93;6.90;;;7.80;99.90;;;;;;5036719;28;20173;-83
2022/11/28 10:53:51;;;;;;;8.32;7.53;;;7.80;99.90;;;;;;5054785;28;20165;-83
2022/11/28 10:56:42;;;;;;;10.80;7.40;;;7.80;99.90;;;;;;5036593;28;20184;-83
2022/11/28 10:59:27;;;;;;;8.27;6.30;;;7.90;99.90;;;;;;5036813;28;20177;-83
2022/11/28 11:01:53;;;;;;;9.50;6.63;;;7.90;99.90;;;;;;5054471;28;20632;-82
2022/11/28 11:04:22;;;;;;;7.88;6.60;;;7.90;99.90;;;;;;5054244;28;20172;-83
2022/11/28 11:07:11;;;;;;;7.82;6.97;;;8.00;99.90;;;;;;5054621;28;20234;-82
2022/11/28 11:09:37;;;;;;;10.10;7.10;;;8.10;99.90;;;;;;5036686;28;20182;-82
2022/11/28 11:12:05;;;;;;;9.27;7.03;;;8.10;99.90;;;;;;5036630;28;20186;-83
2022/11/28 11:14:40;;;;;;;10.63;6.57;;;8.10;99.90;;;;;;5036380;28;20216;-83
2022/11/28 11:17:06;;;;;;;8.85;6.38;;;8.10;99.90;;;;;;5054140;28;20169;-83
2022/11/28 11:19:35;;;;;;;8.10;7.10;;;8.10;99.90;;;;;;5054250;28;20188;-83
2022/11/28 11:22:21;;;;;;;9.63;6.90;;;8.10;99.90;;;;;;5054506;28;20486;-83
2022/11/28 11:25:13;;;;;;;16.38;7.57;;;8.10;99.90;;;;;;5054569;28;20158;-83
2022/11/28 11:27:56;;;;;;;13.50;7.05;;;8.10;99.90;;;;;;5036787;28;20260;-83
2022/11/28 11:30:41;;;;;;;8.70;6.40;;;8.10;99.90;;;;;;5036426;28;20188;-83
2022/11/28 11:33:15;;;;;;;11.43;7.05;;;8.10;99.90;;;;;;5035904;28;20170;-83
2022/11/28 11:35:46;;;;;;;9.88;6.45;;;8.00;99.90;;;;;;5054110;28;20165;-83
2022/11/28 11:38:21;;;;;;;8.57;6.72;;;8.10;99.90;;;;;;5036141;28;20197;-82
2022/11/28 11:40:48;;;;;;;10.20;7.25;;;8.10;99.90;;;;;;5054173;28;20197;-82
2022/11/28 11:43:25;;;;;;;8.23;6.65;;;8.20;99.90;;;;;;5053734;28;20180;-83
2022/11/28 11:46:06;;;;;;;9.70;7.22;;;8.10;99.90;;;;;;5054360;28;20170;-82
2022/11/28 11:48:51;;;;;;;10.43;8.38;;;8.10;99.90;;;;;;5055344;28;20181;-82
2022/11/28 11:51:31;;;;;;;7.50;6.70;;;8.10;99.90;;;;;;5057963;28;20177;-83
2022/11/28 11:54:16;;;;;;;8.15;7.15;;;8.10;99.90;;;;;;5058159;28;20180;-81
2022/11/28 11:56:45;;;;;;;8.60;6.80;;;8.00;99.90;;;;;;5057844;28;20181;-81
2022/11/28 11:59:48;;;;;;;10.88;6.57;;;8.00;99.90;;;;;;5057802;28;20357;-82
2022/11/28 12:02:32;;;;;;;8.43;7.30;;;8.10;99.90;;;;;;5043565;28;20236;-82
2022/11/28 12:05:10;;;;;;;9.27;6.40;;;8.10;99.90;;;;;;5057678;28;20177;-82
2022/11/28 12:07:38;;;;;;;10.60;7.25;;;8.10;99.90;;;;;;5039400;28;20290;-82
2022/11/28 12:10:09;;;;;;;17.65;7.22;;;8.10;99.90;;;;;;5057397;28;20201;-82
2022/11/28 12:12:36;;;;;;;9.20;7.20;;;8.10;99.90;;;;;;5057060;28;20185;-84
2022/11/28 12:15:15;;;;;;;7.70;6.43;;;8.20;99.90;;;;;;5054012;28;20535;-83
2022/11/28 12:17:51;;;;;;;8.68;7.00;;;8.20;99.90;;;;;;5054953;28;20157;-82
2022/11/28 12:20:46;;;;;;;7.85;6.68;;;8.30;99.90;;;;;;5057410;28;20204;-83
2022/11/28 12:23:33;;;;;;;7.30;6.10;;;8.30;99.90;;;;;;5039842;28;20236;-82
2022/11/28 12:26:25;;;;;;;7.25;5.90;;;8.30;99.90;;;;;;5056815;28;20165;-81
2022/11/28 12:29:17;;;;;;;8.75;6.55;;;8.30;99.90;;;;;;5057361;28;20182;-82
2022/11/28 12:32:21;;;;;;;11.32;7.38;;;8.30;99.90;;;;;;5057179;28;20178;-82
2022/11/28 12:35:01;;;;;;;12.15;8.38;;;8.30;99.90;;;;;;5039032;28;20189;-81
2022/11/28 12:37:57;;;;;;;11.25;8.57;;;8.30;99.90;;;;;;5056348;28;20302;-83
2022/11/28 12:40:40;;;;;;;12.32;9.15;;;8.30;99.90;;;;;;5056615;28;20552;-82
2022/11/28 12:43:14;;;;;;;10.20;6.90;;;8.30;99.90;;;;;;5056849;28;20175;-82
2022/11/28 12:46:04;;;;;;;10.15;7.70;;;8.30;99.90;;;;;;5056897;28;20164;-82
2022/11/28 12:48:48;;;;;;;9.18;7.68;;;8.30;99.90;;;;;;5038610;28;20205;-81
2022/11/28 12:51:44;;;;;;;11.05;8.15;;;8.40;99.90;;;;;;5056591;28;20177;-83
2022/11/28 12:54:26;;;;;;;11.65;8.02;;;8.40;99.90;;;;;;5051351;28;20584;-82
2022/11/28 12:57:07;;;;;;;9.35;8.40;;;8.40;99.90;;;;;;5056245;28;20664;-82
2022/11/28 12:59:44;;;;;;;11.20;9.15;;;8.40;99.90;;;;;;5056113;28;20176;-82
2022/11/28 13:02:19;;;;;;;11.15;8.52;;;8.40;99.90;;;;;;5056291;28;20244;-83
2022/11/28 13:05:27;;;;;;;9.68;8.68;;;8.50;99.90;;;;;;5056073;28;20564;-82
2022/11/28 13:08:11;;;;;;;15.43;8.35;;;8.50;99.90;;;;;;5055828;28;20257;-82
2022/11/28 13:10:44;;;;;;;9.80;8.02;;;8.50;99.90;;;;;;5056192;28;20204;-82
2022/11/28 13:13:18;;;;;;;10.70;8.50;;;8.50;99.90;;;;;;5056596;28;20173;-86
2022/11/28 13:15:58;;;;;;;10.07;8.40;;;8.50;99.90;;;;;;5056026;28;20179;-82
2022/11/28 13:18:34;;;;;;;11.10;9.15;;;8.50;99.90;;;;;;5056278;28;20261;-82
2022/11/28 13:21:09;;;;;;;9.23;8.30;;;8.50;99.90;;;;;;5038633;28;20231;-82